createdAt,value
2023-03-13T00:02:01.620Z,-3.54
2023-03-13T00:04:28.989Z,-3.37
2023-03-13T00:06:56.269Z,-3.37
2023-03-13T00:09:23.862Z,-3.44
2023-03-13T00:11:51.163Z,-3.45
2023-03-13T00:14:18.437Z,-3.25
2023-03-13T00:16:45.741Z,-3.57
2023-03-13T00:19:13.335Z,-3.34
2023-03-13T00:21:41.661Z,-3.67
2023-03-13T00:24:10.352Z,-3.56
2023-03-13T00:26:37.757Z,-3.56
2023-03-13T00:29:05.616Z,-3.38
2023-03-13T00:31:33.001Z,-3.26
2023-03-13T00:34:01.618Z,-2.99
2023-03-13T00:36:30.179Z,-3.19
2023-03-13T00:38:58.166Z,-3.23
2023-03-13T00:41:26.721Z,-3.19
2023-03-13T00:43:54.274Z,-3.11
2023-03-13T00:46:23.003Z,-2.77
2023-03-13T00:48:50.452Z,-3.15
2023-03-13T00:51:18.784Z,-3.08
2023-03-13T00:53:47.052Z,-3.14
2023-03-13T00:56:16.049Z,-2.82
2023-03-13T00:58:44.443Z,-2.78
2023-03-13T01:01:14.865Z,-2.84
2023-03-13T01:03:43.487Z,-2.79
2023-03-13T01:06:12.823Z,-2.87
2023-03-13T01:08:40.252Z,-3.16
2023-03-13T01:11:09.194Z,-3.20
2023-03-13T01:13:36.662Z,-2.86
2023-03-13T01:16:16.531Z,-2.76
2023-03-13T01:18:45.699Z,-2.66
2023-03-13T01:21:13.657Z,-2.87
2023-03-13T01:23:41.202Z,-2.71
2023-03-13T01:26:10.286Z,-2.47
2023-03-13T01:28:38.919Z,-2.56
2023-03-13T01:31:14.248Z,-2.48
2023-03-13T01:33:41.909Z,-2.51
2023-03-13T01:36:09.678Z,-2.38
2023-03-13T01:38:37.617Z,-2.59
2023-03-13T01:41:05.550Z,-2.49
2023-03-13T01:43:34.910Z,-2.48
2023-03-13T01:46:11.311Z,-2.69
2023-03-13T01:48:47.693Z,-2.96
2023-03-13T01:51:37.448Z,-2.76
2023-03-13T01:54:05.094Z,-2.91
2023-03-13T01:56:36.498Z,-2.85
2023-03-13T01:59:05.345Z,-2.63
2023-03-13T02:01:34.485Z,-2.79
2023-03-13T02:04:05.430Z,-2.86
2023-03-13T02:06:35.111Z,-2.56
2023-03-13T02:09:14.974Z,-2.67
2023-03-13T02:11:55.222Z,-2.69
2023-03-13T02:14:24.112Z,-2.56
2023-03-13T02:16:52.875Z,-2.61
2023-03-13T02:19:25.163Z,-2.39
2023-03-13T02:22:00.104Z,-2.28
2023-03-13T02:24:38.594Z,-2.30
2023-03-13T02:27:06.192Z,-2.33
2023-03-13T02:29:36.603Z,-2.41
2023-03-13T02:32:04.281Z,-2.48
2023-03-13T02:34:33.994Z,-2.72
2023-03-13T02:37:02.779Z,-2.37
2023-03-13T02:39:32.173Z,-2.34
2023-03-13T02:42:00.320Z,-2.38
2023-03-13T02:44:28.327Z,-2.33
2023-03-13T02:46:55.705Z,-2.11
2023-03-13T02:49:28.078Z,-2.30
2023-03-13T02:51:58.367Z,-2.30
2023-03-13T02:54:31.640Z,-2.14
2023-03-13T02:57:01.283Z,-1.74
2023-03-13T02:59:29.146Z,-1.36
2023-03-13T03:01:57.946Z,-1.21
2023-03-13T03:04:26.359Z,-1.26
2023-03-13T03:06:56.461Z,-1.39
2023-03-13T03:09:24.517Z,-1.40
2023-03-13T03:11:55.903Z,-1.64
2023-03-13T03:14:23.643Z,-1.56
2023-03-13T03:16:52.417Z,-1.56
2023-03-13T03:19:19.722Z,-1.47
2023-03-13T03:21:49.785Z,-1.68
2023-03-13T03:24:19.510Z,-1.42
2023-03-13T03:26:47.368Z,-1.37
2023-03-13T03:29:22.558Z,-0.74
2023-03-13T03:31:52.429Z,-0.04
2023-03-13T03:34:19.893Z,0.96
2023-03-13T03:36:47.621Z,1.45
2023-03-13T03:39:15.016Z,2.32
2023-03-13T03:41:43.020Z,3.06
2023-03-13T03:44:11.647Z,3.20
2023-03-13T03:46:49.537Z,4.21
2023-03-13T03:49:17.636Z,4.81
2023-03-13T03:51:45.347Z,5.11
2023-03-13T03:54:13.423Z,5.66
2023-03-13T03:56:40.817Z,6.06
2023-03-13T03:59:08.311Z,6.34
2023-03-13T04:01:47.720Z,6.86
2023-03-13T04:04:20.081Z,7.23
2023-03-13T04:06:51.746Z,7.85
2023-03-13T04:09:19.123Z,8.27
2023-03-13T04:11:46.452Z,8.38
2023-03-13T04:14:13.907Z,8.40
2023-03-13T04:16:41.309Z,8.64
2023-03-13T04:19:08.856Z,8.92
2023-03-13T04:21:36.536Z,9.49
2023-03-13T04:24:08.556Z,9.84
2023-03-13T04:26:37.546Z,10.23
2023-03-13T04:29:06.641Z,10.38
2023-03-13T04:31:46.615Z,10.93
2023-03-13T04:34:34.263Z,11.36
2023-03-13T04:37:13.659Z,11.70
2023-03-13T04:39:40.903Z,12.13
2023-03-13T04:42:38.205Z,12.20
2023-03-13T04:45:17.790Z,12.43
2023-03-13T04:48:03.487Z,12.88
2023-03-13T04:51:02.954Z,13.21
2023-03-13T04:53:42.006Z,13.43
2023-03-13T04:56:42.102Z,13.81
2023-03-13T04:59:19.807Z,13.88
2023-03-13T05:02:20.895Z,13.80
2023-03-13T05:05:08.311Z,14.04
2023-03-13T05:07:54.086Z,13.90
2023-03-13T05:10:30.461Z,13.91
2023-03-13T05:13:06.748Z,14.08
2023-03-13T05:15:52.606Z,14.16
2023-03-13T05:18:39.654Z,13.84
2023-03-13T05:21:29.862Z,13.97
2023-03-13T05:24:26.406Z,14.32
2023-03-13T05:27:30.520Z,14.80
2023-03-13T05:30:22.012Z,15.15
2023-03-13T05:33:12.559Z,15.80
2023-03-13T05:36:06.130Z,16.39
2023-03-13T05:38:56.688Z,16.62
2023-03-13T05:41:42.495Z,16.90
2023-03-13T05:44:24.839Z,17.41
2023-03-13T05:47:10.646Z,17.42
2023-03-13T05:49:40.661Z,17.53
2023-03-13T05:52:28.426Z,17.74
2023-03-13T05:55:14.127Z,18.03
2023-03-13T05:57:55.170Z,18.54
2023-03-13T06:00:51.780Z,18.53
2023-03-13T06:03:48.271Z,18.49
2023-03-13T06:06:17.723Z,19.02
2023-03-13T06:08:49.719Z,19.14
2023-03-13T06:11:17.144Z,19.56
2023-03-13T06:13:44.780Z,19.83
2023-03-13T06:16:34.843Z,19.91
2023-03-13T06:19:14.720Z,19.76
2023-03-13T06:21:42.156Z,19.56
2023-03-13T06:24:09.501Z,19.49
2023-03-13T06:26:36.788Z,19.51
2023-03-13T06:29:04.293Z,19.24
2023-03-13T06:31:32.297Z,18.71
2023-03-13T06:33:59.615Z,18.63
2023-03-13T06:36:26.941Z,18.39
2023-03-13T06:38:54.168Z,18.45
2023-03-13T06:41:23.683Z,18.41
2023-03-13T06:43:50.977Z,18.35
2023-03-13T06:46:20.142Z,18.49
2023-03-13T06:48:48.454Z,18.62
2023-03-13T06:51:16.615Z,18.66
2023-03-13T06:53:44.131Z,18.52
2023-03-13T06:56:11.798Z,18.10
2023-03-13T06:58:39.131Z,17.79
2023-03-13T07:01:10.749Z,17.58
2023-03-13T07:03:38.700Z,17.84
2023-03-13T07:06:06.424Z,18.15
2023-03-13T07:08:33.694Z,18.55
2023-03-13T07:11:08.302Z,18.93
2023-03-13T07:13:35.985Z,18.99
2023-03-13T07:16:07.253Z,18.52
2023-03-13T07:18:34.949Z,18.10
2023-03-13T07:21:05.404Z,17.78
2023-03-13T07:23:34.165Z,17.74
2023-03-13T07:26:03.193Z,17.78
2023-03-13T07:28:31.600Z,17.56
2023-03-13T07:31:06.208Z,17.32
2023-03-13T07:33:33.651Z,17.24
2023-03-13T07:36:02.534Z,16.95
2023-03-13T07:38:31.455Z,16.48
2023-03-13T07:41:00.949Z,15.80
2023-03-13T07:43:32.838Z,15.41
2023-03-13T07:46:01.674Z,14.92
2023-03-13T07:48:30.968Z,14.67
2023-03-13T07:50:58.539Z,13.76
2023-03-13T07:53:26.416Z,13.41
2023-03-13T07:56:00.985Z,13.74
2023-03-13T07:58:30.263Z,13.06
2023-03-13T08:00:57.834Z,12.46
2023-03-13T08:03:25.670Z,12.45
2023-03-13T08:06:04.091Z,12.55
2023-03-13T08:08:31.443Z,12.89
2023-03-13T08:11:02.742Z,13.03
2023-03-13T08:13:36.934Z,12.40
2023-03-13T08:16:05.481Z,11.48
2023-03-13T08:18:35.426Z,11.19
2023-03-13T08:21:04.266Z,11.10
2023-03-13T08:23:31.666Z,10.34
2023-03-13T08:26:06.061Z,10.54
2023-03-13T08:28:33.393Z,9.80
2023-03-13T08:31:07.059Z,10.24
2023-03-13T08:33:34.376Z,9.20
2023-03-13T08:36:08.576Z,9.42
2023-03-13T08:38:35.937Z,9.41
2023-03-13T08:41:03.233Z,9.36
2023-03-13T08:43:30.577Z,9.08
2023-03-13T08:45:57.900Z,8.81
2023-03-13T08:48:25.227Z,8.54
2023-03-13T08:51:04.925Z,8.59
2023-03-13T08:53:33.108Z,8.76
2023-03-13T08:56:00.785Z,7.92
2023-03-13T08:58:28.427Z,7.48
2023-03-13T09:00:55.962Z,7.60
2023-03-13T09:03:23.317Z,7.85
2023-03-13T09:05:56.267Z,7.57
2023-03-13T09:08:23.938Z,7.71
2023-03-13T09:11:01.282Z,7.47
2023-03-13T09:13:29.265Z,7.89
2023-03-13T09:16:01.627Z,7.52
2023-03-13T09:18:29.427Z,7.91
2023-03-13T09:20:56.831Z,8.03
2023-03-13T09:23:24.465Z,7.86
2023-03-13T09:25:55.585Z,7.75
2023-03-13T09:28:23.557Z,7.55
2023-03-13T09:30:51.009Z,7.46
2023-03-13T09:33:19.190Z,7.79
2023-03-13T09:35:51.312Z,7.63
2023-03-13T09:38:19.347Z,7.52
2023-03-13T09:40:56.641Z,7.23
2023-03-13T09:43:43.140Z,7.10
2023-03-13T09:46:18.868Z,7.06
2023-03-13T09:48:48.475Z,6.92
2023-03-13T09:51:18.847Z,7.16
2023-03-13T09:53:50.073Z,6.95
2023-03-13T09:56:18.211Z,6.73
2023-03-13T09:58:52.528Z,6.30
2023-03-13T10:01:23.180Z,6.47
2023-03-13T10:04:05.178Z,6.26
2023-03-13T10:06:35.433Z,6.50
2023-03-13T10:09:03.073Z,6.56
2023-03-13T10:11:42.990Z,6.86
2023-03-13T10:14:13.275Z,6.78
2023-03-13T10:17:04.075Z,6.93
2023-03-13T10:19:33.410Z,6.87
2023-03-13T10:22:03.360Z,6.82
2023-03-13T10:24:38.240Z,6.49
2023-03-13T10:27:05.955Z,6.39
2023-03-13T10:29:34.067Z,6.92
2023-03-13T10:32:06.289Z,7.16
2023-03-13T10:34:52.387Z,7.05
2023-03-13T10:37:24.432Z,6.15
2023-03-13T10:39:52.172Z,6.36
2023-03-13T10:42:19.454Z,6.41
2023-03-13T10:44:46.901Z,6.23
2023-03-13T10:47:14.911Z,6.23
2023-03-13T10:49:53.490Z,5.99
2023-03-13T10:52:50.199Z,5.75
2023-03-13T10:55:19.048Z,5.92
2023-03-13T10:58:06.151Z,5.93
2023-03-13T11:00:41.502Z,5.78
2023-03-13T11:03:19.674Z,5.87
2023-03-13T11:06:01.189Z,5.57
2023-03-13T11:08:29.683Z,5.56
2023-03-13T11:11:16.293Z,5.75
2023-03-13T11:13:44.828Z,5.19
2023-03-13T11:16:27.139Z,5.33
2023-03-13T11:18:54.380Z,5.27
2023-03-13T11:21:25.139Z,5.43
2023-03-13T11:24:02.465Z,5.14
2023-03-13T11:26:35.981Z,5.47
2023-03-13T11:29:06.345Z,5.22
2023-03-13T11:31:36.368Z,5.06
2023-03-13T11:34:06.707Z,5.08
2023-03-13T11:36:37.173Z,5.18
2023-03-13T11:39:23.256Z,5.29
2023-03-13T11:41:53.868Z,4.84
2023-03-13T11:44:45.991Z,5.13
2023-03-13T11:47:23.099Z,5.30
2023-03-13T11:50:09.155Z,5.34
2023-03-13T11:52:36.541Z,5.22
2023-03-13T11:55:12.989Z,4.98
2023-03-13T11:57:49.428Z,5.19
2023-03-13T12:00:23.062Z,5.25
2023-03-13T12:03:10.985Z,5.07
2023-03-13T12:05:47.676Z,5.30
2023-03-13T12:08:21.181Z,5.23
2023-03-13T12:10:53.438Z,5.06
2023-03-13T12:13:23.579Z,5.12
2023-03-13T12:15:52.921Z,5.00
2023-03-13T12:18:35.762Z,4.87
2023-03-13T12:21:03.042Z,4.98
2023-03-13T12:23:30.325Z,4.58
2023-03-13T12:26:03.876Z,4.63
2023-03-13T12:28:40.422Z,4.51
2023-03-13T12:31:13.902Z,4.60
2023-03-13T12:33:45.802Z,4.79
2023-03-13T12:36:15.126Z,4.68
2023-03-13T12:38:50.312Z,4.40
2023-03-13T12:41:26.386Z,4.60
2023-03-13T12:44:07.607Z,4.28
2023-03-13T12:46:36.548Z,4.84
2023-03-13T12:49:13.155Z,4.36
2023-03-13T12:51:57.906Z,4.10
2023-03-13T12:54:25.157Z,3.84
2023-03-13T12:57:04.983Z,4.21
2023-03-13T12:59:32.237Z,4.18
2023-03-13T13:02:00.476Z,4.43
2023-03-13T13:04:30.845Z,4.10
2023-03-13T13:07:02.660Z,3.89
2023-03-13T13:09:30.391Z,4.00
2023-03-13T13:12:04.658Z,3.97
2023-03-13T13:14:31.938Z,4.01
2023-03-13T13:17:11.563Z,3.92
2023-03-13T13:19:42.036Z,4.05
2023-03-13T13:22:28.029Z,3.55
2023-03-13T13:24:57.122Z,3.14
2023-03-13T13:27:51.052Z,3.05
2023-03-13T13:30:18.347Z,2.93
2023-03-13T13:32:53.303Z,2.95
2023-03-13T13:35:20.692Z,2.92
2023-03-13T13:37:49.616Z,3.29
2023-03-13T13:40:17.287Z,3.14
2023-03-13T13:42:52.674Z,3.33
2023-03-13T13:45:25.889Z,2.77
2023-03-13T13:48:13.041Z,3.21
2023-03-13T13:51:00.414Z,3.04
2023-03-13T13:53:32.083Z,2.46
2023-03-13T13:55:59.763Z,2.50
2023-03-13T13:58:31.714Z,2.74
2023-03-13T14:01:01.251Z,2.42
2023-03-13T14:03:30.085Z,2.22
2023-03-13T14:06:01.200Z,2.39
2023-03-13T14:08:33.446Z,2.61
2023-03-13T14:11:22.622Z,2.33
2023-03-13T14:14:08.767Z,1.77
2023-03-13T14:16:37.411Z,1.93
2023-03-13T14:19:04.987Z,1.57
2023-03-13T14:21:33.498Z,1.42
2023-03-13T14:24:00.799Z,1.42
2023-03-13T14:26:29.596Z,1.35
2023-03-13T14:28:58.921Z,1.36
2023-03-13T14:31:26.157Z,1.31
2023-03-13T14:33:54.000Z,1.17
2023-03-13T14:36:21.466Z,1.42
2023-03-13T14:38:53.247Z,1.47
2023-03-13T14:41:23.446Z,1.40
2023-03-13T14:43:50.756Z,1.29
2023-03-13T14:46:38.135Z,1.36
2023-03-13T14:49:06.922Z,0.93
2023-03-13T14:51:38.695Z,0.84
2023-03-13T14:54:06.059Z,0.81
2023-03-13T14:56:38.189Z,0.75
2023-03-13T14:59:15.693Z,0.54
2023-03-13T15:01:43.560Z,0.82
2023-03-13T15:04:11.041Z,0.73
2023-03-13T15:06:38.308Z,0.69
2023-03-13T15:09:20.211Z,0.43
2023-03-13T15:11:54.987Z,0.60
2023-03-13T15:14:31.996Z,0.42
2023-03-13T15:16:59.364Z,0.50
2023-03-13T15:19:26.873Z,0.74
2023-03-13T15:21:55.272Z,0.56
2023-03-13T15:24:23.683Z,0.45
2023-03-13T15:26:51.012Z,0.27
2023-03-13T15:29:20.452Z,0.31
2023-03-13T15:31:48.007Z,0.44
2023-03-13T15:34:16.472Z,0.16
2023-03-13T15:36:43.812Z,0.42
2023-03-13T15:39:21.080Z,0.46
2023-03-13T15:41:48.391Z,0.13
2023-03-13T15:44:15.825Z,0.24
2023-03-13T15:46:43.443Z,0.48
2023-03-13T15:49:13.247Z,0.39
2023-03-13T15:51:40.592Z,0.53
2023-03-13T15:54:08.030Z,0.50
2023-03-13T15:56:36.802Z,0.22
2023-03-13T15:59:12.203Z,0.26
2023-03-13T16:01:39.913Z,0.29
2023-03-13T16:04:07.807Z,0.14
2023-03-13T16:06:35.252Z,0.16
2023-03-13T16:09:05.942Z,0.10
2023-03-13T16:11:33.898Z,0.16
2023-03-13T16:14:01.494Z,0.03
2023-03-13T16:16:30.195Z,0.06
2023-03-13T16:18:58.174Z,0.34
2023-03-13T16:21:26.936Z,0.48
2023-03-13T16:23:54.298Z,0.32
2023-03-13T16:26:23.378Z,0.40
2023-03-13T16:28:50.991Z,0.49
2023-03-13T16:31:24.758Z,0.22
2023-03-13T16:33:53.883Z,0.50
2023-03-13T16:36:23.154Z,0.51
2023-03-13T16:38:50.965Z,0.42
2023-03-13T16:41:19.734Z,0.38
2023-03-13T16:43:47.406Z,0.18
2023-03-13T16:46:16.383Z,0.21
2023-03-13T16:48:44.675Z,0.34
2023-03-13T16:51:19.705Z,0.28
2023-03-13T16:53:49.951Z,0.46
2023-03-13T16:56:21.051Z,0.29
2023-03-13T16:58:48.418Z,0.19
2023-03-13T17:01:15.993Z,0.03
2023-03-13T17:03:44.117Z,0.04
2023-03-13T17:06:15.161Z,-0.03
2023-03-13T17:08:44.321Z,0.15
2023-03-13T17:11:17.300Z,0.07
2023-03-13T17:13:46.140Z,-0.02
2023-03-13T17:16:15.495Z,0.11
2023-03-13T17:18:43.627Z,0.21
2023-03-13T17:21:15.575Z,0.12
2023-03-13T17:23:43.047Z,0.14
2023-03-13T17:26:20.741Z,-0.07
2023-03-13T17:28:53.065Z,-0.16
2023-03-13T17:31:22.245Z,-0.23
2023-03-13T17:33:50.741Z,-0.12
2023-03-13T17:36:20.378Z,-0.25
2023-03-13T17:38:48.481Z,-0.35
2023-03-13T17:41:17.386Z,0.11
2023-03-13T17:43:45.208Z,0.21
2023-03-13T17:46:23.333Z,0.14
2023-03-13T17:48:52.106Z,0.11
2023-03-13T17:51:21.335Z,0.27
2023-03-13T17:53:49.390Z,0.12
2023-03-13T17:56:21.641Z,0.07
2023-03-13T17:58:50.667Z,0.00
2023-03-13T18:01:19.064Z,0.17
2023-03-13T18:03:46.454Z,0.25
2023-03-13T18:06:19.795Z,-0.02
2023-03-13T18:08:47.711Z,-0.03
2023-03-13T18:11:16.746Z,-0.08
2023-03-13T18:13:45.217Z,-0.11
2023-03-13T18:16:21.918Z,-0.07
2023-03-13T18:18:49.348Z,-0.28
2023-03-13T18:21:16.657Z,-0.03
2023-03-13T18:23:43.952Z,0.07
2023-03-13T18:26:22.705Z,-0.10
2023-03-13T18:29:00.410Z,-0.24
2023-03-13T18:31:32.299Z,-0.09
2023-03-13T18:34:00.136Z,-0.31
2023-03-13T18:36:28.417Z,-0.02
2023-03-13T18:38:56.162Z,-0.13
2023-03-13T18:41:23.814Z,-0.18
2023-03-13T18:43:51.722Z,-0.13
2023-03-13T18:46:30.814Z,-0.12
2023-03-13T18:48:58.305Z,0.04
2023-03-13T18:51:26.191Z,-0.11
2023-03-13T18:53:54.032Z,0.25
2023-03-13T18:56:21.390Z,0.60
2023-03-13T18:58:50.568Z,0.23
2023-03-13T19:01:19.781Z,0.05
2023-03-13T19:03:47.879Z,0.10
2023-03-13T19:06:28.728Z,0.51
2023-03-13T19:08:57.655Z,0.46
2023-03-13T19:11:27.704Z,0.51
2023-03-13T19:13:55.801Z,0.36
2023-03-13T19:16:23.140Z,0.34
2023-03-13T19:18:50.748Z,0.22
2023-03-13T19:21:19.516Z,0.05
2023-03-13T19:23:48.542Z,0.07
2023-03-13T19:26:25.115Z,0.20
2023-03-13T19:28:52.568Z,0.30
2023-03-13T19:31:19.902Z,0.02
2023-03-13T19:33:47.965Z,0.06
2023-03-13T19:36:16.857Z,0.17
2023-03-13T19:38:44.542Z,0.02
2023-03-13T19:41:12.665Z,-0.11
2023-03-13T19:43:40.325Z,0.15
2023-03-13T19:46:19.720Z,0.03
2023-03-13T19:48:47.693Z,0.11
2023-03-13T19:51:15.284Z,-0.06
2023-03-13T19:53:42.859Z,0.04
2023-03-13T19:56:13.284Z,0.15
2023-03-13T19:58:40.526Z,0.16
2023-03-13T20:01:16.831Z,0.07
2023-03-13T20:03:45.789Z,0.26
2023-03-13T20:06:20.624Z,0.33
2023-03-13T20:08:48.338Z,0.46
2023-03-13T20:11:16.445Z,0.26
2023-03-13T20:13:43.937Z,0.24
2023-03-13T20:16:12.167Z,0.42
2023-03-13T20:18:40.229Z,0.27
2023-03-13T20:21:07.822Z,0.26
2023-03-13T20:23:35.148Z,0.21
2023-03-13T20:26:08.832Z,0.19
2023-03-13T20:28:37.088Z,0.21
2023-03-13T20:31:04.876Z,0.53
2023-03-13T20:33:32.624Z,0.51
2023-03-13T20:36:00.966Z,0.38
2023-03-13T20:38:28.802Z,0.39
2023-03-13T20:40:57.262Z,0.70
2023-03-13T20:43:25.314Z,0.45
2023-03-13T20:45:52.945Z,0.59
2023-03-13T20:48:20.995Z,0.73
2023-03-13T20:50:54.539Z,0.79
2023-03-13T20:53:22.237Z,0.55
2023-03-13T20:55:49.852Z,0.55
2023-03-13T20:58:17.665Z,0.58
2023-03-13T21:00:44.977Z,0.60
2023-03-13T21:03:15.340Z,0.56
2023-03-13T21:05:42.787Z,0.48
2023-03-13T21:08:10.817Z,0.44
2023-03-13T21:10:38.776Z,0.56
2023-03-13T21:13:06.116Z,0.69
2023-03-13T21:15:33.461Z,0.60
2023-03-13T21:18:01.432Z,0.62
2023-03-13T21:20:29.258Z,0.56
2023-03-13T21:22:56.754Z,0.50
2023-03-13T21:25:24.105Z,0.44
2023-03-13T21:27:51.428Z,0.46
2023-03-13T21:30:20.432Z,0.77
2023-03-13T21:32:48.265Z,0.53
2023-03-13T21:35:16.973Z,0.58
2023-03-13T21:37:44.348Z,0.51
2023-03-13T21:40:12.368Z,0.56
2023-03-13T21:42:39.836Z,0.30
2023-03-13T21:45:07.629Z,0.36
2023-03-13T21:47:38.297Z,0.43
2023-03-13T21:50:07.172Z,0.43
2023-03-13T21:52:40.765Z,0.67
2023-03-13T21:55:10.501Z,0.67
2023-03-13T21:57:37.783Z,0.36
2023-03-13T22:00:08.348Z,0.34
2023-03-13T22:02:37.262Z,0.39
2023-03-13T22:05:05.001Z,0.30
2023-03-13T22:07:32.426Z,0.50
2023-03-13T22:09:59.721Z,0.43
2023-03-13T22:12:27.619Z,0.25
2023-03-13T22:14:57.399Z,0.45
2023-03-13T22:17:25.232Z,0.55
2023-03-13T22:19:52.582Z,0.50
2023-03-13T22:22:22.185Z,0.35
2023-03-13T22:24:49.628Z,0.43
2023-03-13T22:27:17.980Z,0.56
2023-03-13T22:29:45.377Z,0.64
2023-03-13T22:32:12.688Z,0.48
2023-03-13T22:34:45.145Z,0.47
2023-03-13T22:37:12.637Z,0.70
2023-03-13T22:39:40.003Z,0.64
2023-03-13T22:42:07.535Z,0.79
2023-03-13T22:44:34.883Z,0.52
2023-03-13T22:47:02.220Z,0.65
2023-03-13T22:49:29.782Z,0.63
2023-03-13T22:51:59.284Z,0.80
2023-03-13T22:54:26.579Z,1.03
2023-03-13T22:56:53.968Z,1.24
2023-03-13T22:59:21.211Z,1.36
2023-03-13T23:01:48.584Z,1.44
2023-03-13T23:04:16.091Z,1.59
2023-03-13T23:06:43.388Z,1.52
2023-03-13T23:09:10.748Z,1.17
2023-03-13T23:11:38.493Z,1.34
2023-03-13T23:14:06.029Z,1.39
2023-03-13T23:16:33.494Z,1.66
2023-03-13T23:19:01.855Z,1.88
2023-03-13T23:21:29.239Z,1.99
2023-03-13T23:23:56.529Z,2.14
2023-03-13T23:26:23.767Z,2.12
2023-03-13T23:28:51.096Z,1.56
2023-03-13T23:31:19.886Z,1.74
2023-03-13T23:33:48.123Z,1.87
2023-03-13T23:36:16.907Z,1.97
2023-03-13T23:38:44.583Z,1.88
2023-03-13T23:41:13.501Z,2.02
2023-03-13T23:43:41.080Z,1.76
2023-03-13T23:46:18.486Z,2.04
2023-03-13T23:48:45.843Z,2.09
2023-03-13T23:51:13.371Z,2.15
2023-03-13T23:53:41.885Z,2.15
2023-03-13T23:56:09.414Z,2.15
2023-03-13T23:58:36.799Z,2.11
